Time;durP1;ratioP1;P1;durP2;ratioP2;P2;SDS_P1;SDS_P2;PMS_P1;PMS_P2;Temp;Humidity;BMP_temperature;BMP_pressure;BME280_temperature;BME280_humidity;BME280_pressure;Samples;Min_cycle;Max_cycle;Signal;HPM_P1;HPM_P2
2023/02/24 00:01:17;;;;;;;;;26.00;24.33;;;;;11.67;60.30;101293.75;2013666;28;3582551;-73
2023/02/24 00:02:28;;;;;;;;;48.00;36.00;;;;;11.67;60.18;101291.13;2026061;28;2871456;-72
2023/02/24 00:03:40;;;;;;;;;40.50;33.50;;;;;11.66;60.40;101286.75;2002318;28;2848186;-73
2023/02/24 00:04:52;;;;;;;;;46.00;37.00;;;;;11.65;59.96;101282.41;1998924;28;3588752;-72
2023/02/24 00:06:10;;;;;;;;;40.80;31.00;;;;;11.65;60.17;101287.69;2015489;28;3616974;-72
2023/02/24 00:07:22;;;;;;;;;47.67;33.00;;;;;11.65;59.78;101286.81;1988843;28;3607525;-73
2023/02/24 00:08:34;;;;;;;;;44.20;35.60;;;;;11.63;59.96;101278.94;2006387;28;3591889;-73
2023/02/24 00:09:45;;;;;;;;;42.00;33.50;;;;;11.61;60.08;101286.03;1997371;28;2852312;-72
2023/02/24 00:10:57;;;;;;;;;40.67;32.33;;;;;11.60;60.07;101281.69;2016464;28;3588808;-73
2023/02/24 00:12:12;;;;;;;;;43.33;34.67;;;;;11.59;59.57;101293.09;2014606;28;3586049;-73
2023/02/24 00:13:22;;;;;;;;;45.50;34.50;;;;;11.57;60.01;101292.28;2024215;28;2855452;-72
2023/02/24 00:14:37;;;;;;;;;42.60;32.80;;;;;11.55;60.17;101286.22;2017629;27;3610642;-73
2023/02/24 00:16:09;;;;;;;;;44.00;35.33;;;;;11.56;60.22;101293.19;1998719;28;3610585;-73
2023/02/24 00:17:22;;;;;;;;;39.00;32.00;;;;;11.56;59.68;101287.91;1994322;27;3592927;-73
2023/02/24 00:18:34;;;;;;;;;47.00;38.00;;;;;11.54;59.99;101282.72;2008260;27;2871117;-72
2023/02/24 00:19:45;;;;;;;;;45.50;35.00;;;;;11.54;60.23;101282.72;2008758;27;2850265;-72
2023/02/24 00:21:11;;;;;;;;;46.67;33.67;;;;;11.55;60.24;101284.44;2013004;28;3622089;-72
2023/02/24 00:22:22;;;;;;;;;48.00;38.50;;;;;11.56;59.78;101282.66;2001995;28;2874222;-73
2023/02/24 00:23:36;;;;;;;;;43.60;34.60;;;;;11.55;60.07;101286.22;2017135;28;3604373;-73
2023/02/24 00:24:47;;;;;;;;;41.67;35.33;;;;;11.55;60.04;101275.69;2021176;28;2842958;-73
2023/02/24 00:25:59;;;;;;;;;40.50;33.00;;;;;11.56;60.13;101272.13;2026940;27;2845054;-73
2023/02/24 00:27:10;;;;;;;;;42.00;33.00;;;;;11.58;60.14;101273.81;2004016;28;2850225;-72
2023/02/24 00:28:21;;;;;;;;;38.50;33.50;;;;;11.59;60.20;101274.69;2003023;28;2847105;-72
2023/02/24 00:29:36;;;;;;;;;43.00;33.20;;;;;11.59;59.95;101277.31;2022767;27;3610673;-73
2023/02/24 00:30:46;;;;;;;;;43.50;33.00;;;;;11.60;60.01;101276.41;2002782;28;2856527;-73
2023/02/24 00:31:59;;;;;;;;;36.20;31.60;;;;;11.59;59.94;101277.31;2017921;28;3603305;-72
2023/02/24 00:33:11;;;;;;;;;45.20;34.40;;;;;11.59;60.01;101272.91;2008022;28;3603481;-72
2023/02/24 00:34:22;;;;;;;;;44.40;35.00;;;;;11.60;59.87;101268.50;2005208;28;3587688;-72
2023/02/24 00:35:34;;;;;;;;;40.00;33.60;;;;;11.61;59.50;101272.84;2018414;28;3589775;-73
2023/02/24 00:36:47;;;;;;;;;40.67;28.67;;;;;11.61;59.86;101272.84;2038086;28;3595035;-73
2023/02/24 00:37:58;;;;;;;;;40.00;32.00;;;;;11.61;59.52;101267.59;2024547;27;2847116;-73
2023/02/24 00:39:10;;;;;;;;;40.67;31.33;;;;;11.60;59.98;101263.25;1997332;28;3600278;-72
2023/02/24 00:40:22;;;;;;;;;44.00;35.20;;;;;11.61;59.90;101266.72;2003103;28;3599146;-72
2023/02/24 00:41:34;;;;;;;;;52.00;36.00;;;;;11.62;59.78;101257.94;1999285;28;2868271;-73
2023/02/24 00:42:47;;;;;;;;;52.33;35.00;;;;;11.61;59.83;101264.09;1999287;28;3605458;-72
2023/02/24 00:44:05;;;;;;;;;55.75;38.50;;;;;11.59;59.71;101262.38;2000687;27;3639825;-72
2023/02/24 00:45:16;;;;;;;;;46.00;36.00;;;;;11.58;59.71;101259.81;2022399;28;2864899;-73
2023/02/24 00:46:30;;;;;;;;;48.20;35.40;;;;;11.56;59.83;101262.47;2019746;28;3609598;-73
2023/02/24 00:47:41;;;;;;;;;48.00;38.00;;;;;11.55;59.92;101265.16;2027039;28;2868358;-72
2023/02/24 00:48:53;;;;;;;;;51.67;39.67;;;;;11.53;60.11;101256.44;1999596;28;3620010;-72
2023/02/24 00:50:05;;;;;;;;;49.50;40.00;;;;;11.52;60.13;101258.19;2001984;27;2864852;-72
2023/02/24 00:51:22;;;;;;;;;46.00;38.00;;;;;11.52;60.06;101254.69;2000274;28;2869022;-72
2023/02/24 00:52:33;;;;;;;;;53.00;38.50;;;;;11.52;60.18;101255.56;2001400;28;2880496;-73
2023/02/24 00:53:44;;;;;;;;;55.00;39.50;;;;;11.51;60.25;101248.56;2000007;27;2889857;-72
2023/02/24 00:54:57;;;;;;;;;39.33;32.00;;;;;11.51;60.07;101245.94;2015393;28;3596428;-72
2023/02/24 00:56:12;;;;;;;;;48.00;38.00;;;;;11.51;60.13;101253.00;1993163;28;2874172;-72
2023/02/24 00:57:23;;;;;;;;;50.00;37.00;;;;;11.49;60.20;101260.91;1999783;28;2870008;-72
2023/02/24 00:58:35;;;;;;;;;51.20;38.80;;;;;11.48;59.96;101256.56;2020400;28;3626229;-72
2023/02/24 00:59:47;;;;;;;;;43.80;33.40;;;;;11.47;60.13;101257.47;2021857;28;3601248;-72
2023/02/24 01:01:00;;;;;;;;;46.40;37.80;;;;;11.47;60.38;101255.69;2014667;28;3617891;-73
2023/02/24 01:02:10;;;;;;;;;49.00;38.50;;;;;11.46;60.24;101256.59;2004033;28;2855414;-72
2023/02/24 01:03:24;;;;;;;;;52.20;38.60;;;;;11.45;60.58;101254.88;2020747;27;3621044;-72
2023/02/24 01:04:36;;;;;;;;;47.00;37.00;;;;;11.45;60.54;101247.00;2002829;28;2865853;-72
2023/02/24 01:05:48;;;;;;;;;48.67;38.00;;;;;11.45;60.28;101249.63;1991131;28;3613811;-73
2023/02/24 01:07:00;;;;;;;;;46.60;35.20;;;;;11.46;60.56;101253.97;2012108;28;3623098;-72
2023/02/24 01:08:15;;;;;;;;;50.00;37.33;;;;;11.45;60.43;101254.03;1993146;28;3607510;-72
2023/02/24 01:09:28;;;;;;;;;51.50;38.50;;;;;11.46;60.53;101255.72;1995479;28;2886745;-72
2023/02/24 01:10:38;;;;;;;;;52.50;39.50;;;;;11.44;60.51;101247.88;2001470;28;2867309;-72
2023/02/24 01:13:19;;;;;;;;;56.00;41.00;;;;;11.45;60.54;101246.13;1999267;28;2889826;-72
2023/02/24 01:14:33;;;;;;;;;54.20;41.60;;;;;11.44;60.40;101241.75;2017949;28;3627273;-73
2023/02/24 01:15:44;;;;;;;;;49.50;40.00;;;;;11.44;60.67;101245.25;1993338;28;2864270;-72
2023/02/24 01:16:57;;;;;;;;;55.00;39.60;;;;;11.45;60.73;101238.22;2020798;28;3628678;-72
2023/02/24 01:18:09;;;;;;;;;51.00;41.50;;;;;11.43;60.65;101240.88;2003388;28;2856885;-72
2023/02/24 01:19:23;;;;;;;;;49.50;38.50;;;;;11.42;60.57;101244.44;2002631;28;2860630;-72
2023/02/24 01:20:34;;;;;;;;;53.50;40.50;;;;;11.39;60.58;101239.25;2000617;28;2884619;-72
2023/02/24 01:21:46;;;;;;;;;50.00;37.00;;;;;11.37;60.87;101230.53;2003333;28;3622077;-72
2023/02/24 01:22:57;;;;;;;;;50.50;39.00;;;;;11.35;60.96;101233.22;2001952;28;2870021;-72
2023/02/24 01:24:09;;;;;;;;;53.50;40.00;;;;;11.34;60.78;101234.13;2003920;27;2880540;-72
2023/02/24 01:25:20;;;;;;;;;53.50;43.50;;;;;11.33;60.67;101228.91;1996019;28;2868966;-72
2023/02/24 01:26:32;;;;;;;;;57.40;41.40;;;;;11.32;60.65;101221.91;2011061;28;3627270;-73
2023/02/24 01:27:44;;;;;;;;;52.00;38.80;;;;;11.32;60.96;101227.19;2021366;28;3625186;-72
2023/02/24 01:28:56;;;;;;;;;52.40;40.60;;;;;11.31;60.82;101226.31;2022508;28;3615855;-72
2023/02/24 01:30:14;;;;;;;;;53.00;41.40;;;;;11.31;60.80;101228.09;2009156;28;3614797;-72
2023/02/24 01:31:27;;;;;;;;;52.00;38.50;;;;;11.30;61.01;101223.72;2001513;28;2877360;-72
2023/02/24 01:32:39;;;;;;;;;51.33;40.33;;;;;11.30;60.95;101223.72;2000145;28;3622160;-72
2023/02/24 01:33:50;;;;;;;;;56.00;43.00;;;;;11.28;60.88;101221.16;1998413;28;2883597;-72
2023/02/24 01:35:01;;;;;;;;;57.00;41.50;;;;;11.26;61.07;101215.03;1993307;28;2896081;-72
2023/02/24 01:36:19;;;;;;;;;54.40;42.60;;;;;11.24;60.87;101214.22;2014372;28;3621027;-73
2023/02/24 01:37:30;;;;;;;;;55.50;42.00;;;;;11.22;61.27;101216.03;1999462;28;2880538;-72
2023/02/24 01:38:43;;;;;;;;;55.20;43.60;;;;;11.20;60.97;101212.59;2002300;28;3613733;-72
2023/02/24 01:39:54;;;;;;;;;53.33;41.67;;;;;11.18;61.15;101215.28;2023557;28;2887730;-73
2023/02/24 01:41:05;;;;;;;;;57.00;43.50;;;;;11.18;61.21;101223.19;2025778;28;2860642;-72
2023/02/24 01:42:20;;;;;;;;;53.00;40.40;;;;;11.17;61.06;101215.31;2020969;28;3629451;-72
2023/02/24 01:43:32;;;;;;;;;60.00;42.50;;;;;11.17;61.31;101210.03;2000729;28;2887716;-72
2023/02/24 01:44:43;;;;;;;;;53.33;39.67;;;;;11.16;61.17;101213.59;1997004;28;3636641;-72
2023/02/24 01:45:57;;;;;;;;;53.75;39.88;;;;;11.16;61.13;101216.22;2011067;28;3631451;-72
2023/02/24 01:47:10;;;;;;;;;58.00;42.67;;;;;11.15;61.42;101212.72;1999806;27;3634662;-72
2023/02/24 01:48:21;;;;;;;;;60.50;44.00;;;;;11.14;61.48;101225.00;2000512;27;2886702;-72
2023/02/24 01:49:45;;;;;;;;;56.40;41.00;;;;;11.14;61.25;101213.63;2011656;27;3646030;-72
2023/02/24 01:50:57;;;;;;;;;63.50;45.50;;;;;11.11;61.55;101208.47;2008227;27;2875263;-72
2023/02/24 01:52:10;;;;;;;;;60.00;45.00;;;;;11.08;61.72;101208.53;2003133;27;2864916;-72
2023/02/24 01:53:21;;;;;;;;;59.50;42.00;;;;;11.06;61.52;101202.47;1999630;28;2886742;-72
2023/02/24 01:54:57;;;;;;;;;61.00;44.00;;;;;11.02;61.54;101212.19;2013790;28;3612695;-72
2023/02/24 01:56:12;;;;;;;;;55.00;39.50;;;;;10.99;61.37;101207.00;2016648;28;2886089;-72
2023/02/24 01:57:28;;;;;;;;;57.00;43.00;;;;;10.98;61.65;101200.03;1994693;28;2883043;-72
2023/02/24 01:58:39;;;;;;;;;52.00;41.00;;;;;10.95;61.84;101203.63;2001038;28;2881561;-72
2023/02/24 01:59:53;;;;;;;;;57.00;44.00;;;;;10.96;61.91;101201.84;2000956;28;2876321;-72
2023/02/24 02:01:08;;;;;;;;;55.50;44.00;;;;;10.94;62.06;101201.88;2001169;28;2870058;-73
2023/02/24 02:02:22;;;;;;;;;62.50;44.50;;;;;10.94;61.89;101196.63;2000490;27;2881545;-73
2023/02/24 02:03:35;;;;;;;;;58.50;44.00;;;;;10.91;61.73;101197.56;2001673;27;2876417;-72
2023/02/24 02:04:57;;;;;;;;;60.50;45.00;;;;;10.89;61.67;101198.53;1995391;27;2870075;-72
2023/02/24 02:06:10;;;;;;;;;53.50;42.00;;;;;10.88;61.97;101199.44;1998085;28;2864862;-72
2023/02/24 02:07:23;;;;;;;;;61.00;44.00;;;;;10.86;61.87;101203.88;1999003;28;2882544;-72
2023/02/24 02:08:37;;;;;;;;;61.00;46.00;;;;;10.84;62.22;101197.78;1992657;28;2873180;-72
2023/02/24 02:09:51;;;;;;;;;60.00;43.50;;;;;10.81;62.18;101198.72;1996027;28;2879481;-72
2023/02/24 02:11:07;;;;;;;;;60.50;45.00;;;;;10.79;61.92;101195.28;1993859;28;2869003;-73
2023/02/24 02:12:17;;;;;;;;;54.00;42.50;;;;;10.77;62.00;101192.69;1999470;27;2877354;-72
2023/02/24 02:13:34;;;;;;;;;56.80;40.60;;;;;10.76;62.02;101193.59;2017936;28;3640849;-72
2023/02/24 02:14:53;;;;;;;;;59.67;43.00;;;;;10.73;62.13;101191.03;1998351;28;3644505;-72
2023/02/24 02:16:19;;;;;;;;;56.00;42.00;;;;;10.73;62.15;101195.44;1999351;28;2889838;-72
2023/02/24 02:17:41;;;;;;;;;52.00;42.00;;;;;10.73;62.23;101187.53;2000470;28;2881521;-72
2023/02/24 02:19:13;;;;;;;;;52.50;40.50;;;;;10.72;62.12;101189.31;1998906;28;2871090;-72
2023/02/24 02:20:55;;;;;;;;;55.50;41.00;;;;;10.70;62.07;101183.22;1992227;28;2887763;-72
2023/02/24 02:22:25;;;;;;;;;54.00;40.00;;;;;10.68;62.39;101185.03;1996260;28;2885687;-72
2023/02/24 02:23:53;;;;;;;;;59.00;44.50;;;;;10.67;62.18;101183.31;2001507;27;2883628;-72
2023/02/24 02:25:08;;;;;;;;;54.33;39.00;;;;;10.67;62.17;101180.69;2000143;27;3613768;-72
2023/02/24 02:27:12;;;;;;;;;51.50;40.00;;;;;10.69;62.29;101173.63;1999930;28;2872194;-72
2023/02/24 02:28:46;;;;;;;;;63.00;44.50;;;;;10.69;62.47;101181.53;1983856;28;3643016;-72
2023/02/24 02:30:12;;;;;;;;;42.50;36.50;;;;;10.67;62.29;101176.28;2016192;28;2850340;-72
2023/02/24 02:31:49;;;;;;;;;56.00;40.00;;;;;10.66;62.21;101174.56;2016477;28;2864898;-73
2023/02/24 02:33:29;;;;;;;;;53.00;39.00;;;;;10.65;62.30;101174.59;1992440;28;2853393;-72
2023/02/24 02:35:10;;;;;;;;;56.50;41.00;;;;;10.64;62.30;101170.25;1991375;28;2883597;-72
2023/02/24 02:36:23;;;;;;;;;55.00;43.00;;;;;10.64;62.26;101170.25;1992631;28;2881521;-72
2023/02/24 02:37:48;;;;;;;;;62.50;43.50;;;;;10.64;62.52;101167.63;1996749;28;2883611;-72
2023/02/24 02:39:13;;;;;;;;;61.50;45.00;;;;;10.65;62.50;101164.94;1998391;28;2871121;-72
2023/02/24 02:40:36;;;;;;;;;56.50;41.50;;;;;10.63;62.56;101164.13;2001289;27;2882559;-72
2023/02/24 02:41:53;;;;;;;;;50.50;40.00;;;;;10.65;62.42;101159.69;1999992;28;2870083;-73
2023/02/24 02:43:13;;;;;;;;;56.50;41.50;;;;;10.65;62.41;101157.06;1999148;28;2886710;-72
2023/02/24 02:44:38;;;;;;;;;56.00;41.00;;;;;10.65;62.42;101157.06;2000337;27;2876302;-72
2023/02/24 02:45:56;;;;;;;;;57.00;41.00;;;;;10.67;62.48;101151.75;1996309;28;2879447;-72
2023/02/24 02:47:12;;;;;;;;;61.00;41.00;;;;;10.69;62.37;101156.06;2000674;28;2894090;-72
2023/02/24 02:48:46;;;;;;;;;56.50;43.00;;;;;10.71;62.46;101155.19;1991728;28;2885687;-72
2023/02/24 02:50:17;;;;;;;;;57.00;43.00;;;;;10.72;62.51;101157.75;1992564;28;2887803;-72
2023/02/24 02:51:37;;;;;;;;;58.33;38.67;;;;;10.72;62.43;101159.56;1999113;28;3640875;-72
2023/02/24 02:52:54;;;;;;;;;57.00;42.50;;;;;10.73;62.36;101150.75;2000850;28;2884013;-72
2023/02/24 02:54:22;;;;;;;;;52.33;40.00;;;;;10.72;62.35;101151.66;1999724;28;3632530;-72
2023/02/24 02:55:44;;;;;;;;;62.67;45.33;;;;;10.72;62.75;101155.13;1992920;28;3605451;-72
2023/02/24 02:57:06;;;;;;;;;51.00;39.00;;;;;10.71;62.49;101153.41;1998367;28;2875283;-72
2023/02/24 02:58:25;;;;;;;;;52.00;40.00;;;;;10.70;62.74;101154.31;1993942;28;2886084;-72
2023/02/24 02:59:48;;;;;;;;;58.00;42.00;;;;;10.70;62.71;101149.06;2000347;27;3631492;-72
2023/02/24 03:01:02;;;;;;;;;58.67;44.00;;;;;10.69;62.77;101155.22;2000830;28;3632560;-72
2023/02/24 03:02:18;;;;;;;;;51.67;38.33;;;;;10.69;62.86;101155.22;1997584;27;3621164;-72
2023/02/24 03:03:37;;;;;;;;;57.50;44.00;;;;;10.68;62.76;101154.38;1996139;28;2874651;-72
2023/02/24 03:04:57;;;;;;;;;56.00;43.00;;;;;10.69;62.44;101155.22;2000359;27;2870059;-72
2023/02/24 03:06:12;;;;;;;;;54.00;42.00;;;;;10.69;62.72;101155.22;2002988;27;2870076;-72
2023/02/24 03:07:30;;;;;;;;;59.67;43.67;;;;;10.69;62.88;101150.81;1999797;27;3636683;-72
2023/02/24 03:08:51;;;;;;;;;61.00;44.00;;;;;10.68;63.03;101153.50;2001929;27;2869033;-72
2023/02/24 03:10:09;;;;;;;;;56.00;44.00;;;;;10.69;63.04;101148.19;2002448;27;2878743;-73
2023/02/24 03:11:21;;;;;;;;;55.00;42.33;;;;;10.71;62.93;101163.06;2001326;28;3630419;-72
2023/02/24 03:12:36;;;;;;;;;56.00;44.00;;;;;10.68;63.05;101154.38;2001734;28;2858608;-72
2023/02/24 03:13:50;;;;;;;;;56.50;44.00;;;;;10.67;63.29;101152.63;2001209;28;2882583;-72
2023/02/24 03:15:03;;;;;;;;;61.00;45.00;;;;;10.66;63.11;101153.53;1999344;27;2874237;-72
2023/02/24 03:16:16;;;;;;;;;56.50;41.00;;;;;10.67;63.06;101151.75;2000748;28;2852332;-72
2023/02/24 03:17:32;;;;;;;;;60.50;45.00;;;;;10.68;63.36;101153.50;1998718;27;2867969;-72
2023/02/24 03:19:01;;;;;;;;;60.00;43.00;;;;;10.69;63.25;101152.59;2002493;28;2884646;-72
2023/02/24 03:20:21;;;;;;;;;61.67;45.67;;;;;10.71;63.19;101145.53;2001714;27;3614826;-72
2023/02/24 03:21:44;;;;;;;;;57.00;43.00;;;;;10.71;63.41;101147.28;2007944;27;2876805;-72
2023/02/24 03:22:59;;;;;;;;;56.00;43.50;;;;;10.70;63.13;101141.16;1993409;28;2869005;-72
2023/02/24 03:24:14;;;;;;;;;59.00;43.00;;;;;10.69;63.40;101153.44;1993629;28;3637741;-72
2023/02/24 03:25:32;;;;;;;;;59.50;45.00;;;;;10.70;63.04;101154.31;2022823;28;2883589;-72
2023/02/24 03:26:50;;;;;;;;;58.50;46.00;;;;;10.71;63.21;101155.19;2001753;27;2874601;-73
2023/02/24 03:28:10;;;;;;;;;60.00;44.00;;;;;10.72;63.25;101156.91;1993564;28;2868999;-72
2023/02/24 03:29:32;;;;;;;;;58.00;43.00;;;;;10.74;63.36;101163.84;1991896;28;2877339;-73
2023/02/24 03:30:51;;;;;;;;;58.00;44.33;;;;;10.76;63.12;101161.19;1996203;28;3614806;-72
2023/02/24 03:32:11;;;;;;;;;60.00;44.00;;;;;10.75;63.38;101157.69;2000932;28;2885114;-72
2023/02/24 03:33:29;;;;;;;;;59.00;43.00;;;;;10.74;63.37;101153.31;1998985;28;2898164;-72
2023/02/24 03:35:05;;;;;;;;;62.50;44.25;;;;;10.71;63.29;101148.16;1996569;28;3647104;-72
2023/02/24 03:36:16;;;;;;;;;52.50;42.00;;;;;10.71;63.44;101148.16;2025427;27;2879438;-72
2023/02/24 03:37:28;;;;;;;;;55.33;44.33;;;;;10.71;63.33;101150.78;2014262;27;3614794;-72
2023/02/24 03:38:42;;;;;;;;;59.00;43.50;;;;;10.72;63.63;101149.88;2003498;28;2875256;-72
2023/02/24 03:39:56;;;;;;;;;62.67;44.67;;;;;10.75;63.41;101151.56;1998816;28;3629361;-72
2023/02/24 03:41:10;;;;;;;;;63.00;44.50;;;;;10.74;63.31;101150.69;1995652;28;2873667;-72
2023/02/24 03:42:23;;;;;;;;;58.00;45.00;;;;;10.77;63.36;101153.25;1995324;28;2877347;-72
2023/02/24 03:43:39;;;;;;;;;60.67;42.67;;;;;10.79;63.27;101147.97;2000265;28;3634578;-72
2023/02/24 03:44:50;;;;;;;;;62.50;46.00;;;;;10.80;63.54;101153.16;1997677;28;2866927;-72
2023/02/24 03:46:04;;;;;;;;;55.80;38.80;;;;;10.80;63.37;101145.28;2009815;28;3634592;-72
2023/02/24 03:47:16;;;;;;;;;54.00;43.50;;;;;10.80;63.11;101150.53;2003446;28;2883617;-72
2023/02/24 03:48:27;;;;;;;;;63.00;47.00;;;;;10.79;63.12;101151.44;2003377;28;2880425;-72
2023/02/24 03:49:42;;;;;;;;;63.33;47.67;;;;;10.79;63.36;101151.44;2002509;28;2884603;-72
2023/02/24 03:50:54;;;;;;;;;60.00;45.50;;;;;10.78;63.35;101144.47;2024718;27;2881462;-72
2023/02/24 03:52:20;;;;;;;;;61.00;45.00;;;;;10.79;63.64;101148.78;2003732;28;2878357;-72
2023/02/24 03:53:36;;;;;;;;;56.50;42.00;;;;;10.78;63.38;101143.59;1999049;28;2883596;-72
2023/02/24 03:55:08;;;;;;;;;58.50;43.00;;;;;10.78;63.27;101140.97;1993802;28;2877375;-72
2023/02/24 03:56:44;;;;;;;;;56.00;43.00;;;;;10.79;63.53;101140.06;2001604;28;2884722;-72
2023/02/24 03:58:30;;;;;;;;;58.00;42.50;;;;;10.77;63.32;101140.09;1999155;28;2888829;-72
2023/02/24 03:59:56;;;;;;;;;63.50;46.50;;;;;10.77;63.33;101132.22;2002118;27;2879419;-72
2023/02/24 04:01:24;;;;;;;;;57.00;44.50;;;;;10.78;63.42;101136.56;2001535;28;2862831;-72
2023/02/24 04:02:35;;;;;;;;;58.50;42.50;;;;;10.79;63.37;101132.19;1991832;28;2882552;-72
2023/02/24 04:04:04;;;;;;;;;57.00;43.80;;;;;10.79;63.64;101130.41;2013261;28;3613748;-72
2023/02/24 04:05:20;;;;;;;;;61.00;45.00;;;;;10.81;63.38;101122.47;2023305;27;2860697;-72
2023/02/24 04:06:52;;;;;;;;;55.67;42.33;;;;;10.83;63.43;101130.31;1992117;28;3616906;-72
2023/02/24 04:08:07;;;;;;;;;58.50;44.00;;;;;10.84;63.48;101126.78;1995237;28;2858630;-72
2023/02/24 04:09:25;;;;;;;;;55.00;42.00;;;;;10.84;63.44;101129.44;2001126;27;2881546;-72
2023/02/24 04:11:19;;;;;;;;;55.33;42.33;;;;;10.86;63.51;101124.97;2000990;27;3625242;-72
2023/02/24 04:12:45;;;;;;;;;57.50;45.00;;;;;10.87;63.13;101118.78;1977019;28;2886774;-73
2023/02/24 04:14:05;;;;;;;;;64.00;45.50;;;;;10.88;62.82;101118.78;1976860;28;2880487;-72
2023/02/24 04:15:31;;;;;;;;;57.50;44.00;;;;;10.90;63.29;101116.09;1997005;28;2862776;-72
2023/02/24 04:16:59;;;;;;;;;61.50;43.00;;;;;10.91;63.30;101113.41;2000296;27;2876293;-72
2023/02/24 04:18:17;;;;;;;;;57.00;42.50;;;;;10.94;63.12;101107.19;1993111;28;2888899;-72
2023/02/24 04:19:37;;;;;;;;;57.00;43.00;;;;;10.94;63.13;101106.34;2001376;28;2887771;-73
2023/02/24 04:20:54;;;;;;;;;57.50;42.50;;;;;10.93;63.13;101104.63;2000951;28;2867988;-72
2023/02/24 04:22:09;;;;;;;;;61.00;46.00;;;;;10.93;63.38;101107.25;2000998;28;2879422;-72
2023/02/24 04:23:25;;;;;;;;;50.00;39.00;;;;;10.91;63.13;101102.88;1993551;28;2873646;-72
2023/02/24 04:24:39;;;;;;;;;52.50;42.00;;;;;10.92;63.27;101103.75;2001117;28;2874202;-73
2023/02/24 04:25:52;;;;;;;;;60.00;45.00;;;;;10.93;63.33;101097.59;2001862;27;2885692;-73
2023/02/24 04:27:07;;;;;;;;;58.00;44.00;;;;;10.94;62.96;101098.47;2000659;27;2878384;-72
2023/02/24 04:28:21;;;;;;;;;52.67;41.67;;;;;10.96;63.32;101088.75;1993175;28;3629503;-72
2023/02/24 04:29:36;;;;;;;;;55.00;43.50;;;;;10.96;63.09;101084.38;2001333;28;2865878;-72
2023/02/24 04:30:51;;;;;;;;;62.00;46.00;;;;;10.97;63.05;101086.06;1998195;28;2877358;-72
2023/02/24 04:32:08;;;;;;;;;60.50;44.00;;;;;10.96;63.08;101076.47;1998179;28;2872154;-72
2023/02/24 04:33:19;;;;;;;;;59.50;45.00;;;;;10.97;62.98;101085.22;1993367;28;2878400;-72
2023/02/24 04:34:31;;;;;;;;;55.00;42.60;;;;;10.96;63.12;101084.38;2015496;28;3616897;-72
2023/02/24 04:35:44;;;;;;;;;56.60;43.20;;;;;10.97;62.96;101082.56;2004942;28;3605410;-72
2023/02/24 04:36:55;;;;;;;;;59.50;46.00;;;;;10.96;63.18;101081.75;2001891;28;2875340;-72
2023/02/24 04:38:07;;;;;;;;;57.80;44.00;;;;;10.97;63.16;101079.94;2019210;28;3621078;-72
2023/02/24 04:39:22;;;;;;;;;55.80;41.60;;;;;10.95;62.91;101077.38;2008620;28;3647176;-72
2023/02/24 04:40:32;;;;;;;;;55.50;40.00;;;;;10.98;63.14;101081.69;2000667;27;2880425;-73
2023/02/24 04:41:49;;;;;;;;;61.25;41.00;;;;;10.98;63.02;101079.91;2007912;28;3641939;-72
2023/02/24 04:42:59;;;;;;;;;55.50;42.00;;;;;10.98;63.05;101082.56;2024247;28;2889300;-72
2023/02/24 04:44:11;;;;;;;;;57.60;43.00;;;;;11.01;63.12;101073.72;2018661;27;3629428;-72
2023/02/24 04:45:26;;;;;;;;;52.00;41.60;;;;;11.01;63.02;101079.81;2013342;28;3624149;-72
2023/02/24 04:46:38;;;;;;;;;61.67;43.33;;;;;11.02;63.17;101080.69;2000566;28;3640874;-72
2023/02/24 04:47:54;;;;;;;;;53.00;41.20;;;;;11.03;62.95;101078.03;2020417;28;3639785;-72
2023/02/24 04:49:05;;;;;;;;;58.00;44.00;;;;;11.05;63.02;101077.97;1999123;28;2879438;-72
2023/02/24 04:50:21;;;;;;;;;56.60;42.00;;;;;11.05;62.93;101077.97;2013201;28;3633631;-72
2023/02/24 04:51:32;;;;;;;;;57.00;42.50;;;;;11.05;63.02;101072.69;1999073;28;2878401;-72
2023/02/24 04:52:43;;;;;;;;;53.50;42.00;;;;;11.07;62.81;101073.50;1998946;28;2874176;-73
2023/02/24 04:53:55;;;;;;;;;52.40;42.20;;;;;11.08;62.89;101072.63;2004571;28;3603348;-73
2023/02/24 04:55:09;;;;;;;;;56.40;43.60;;;;;11.08;62.97;101071.75;2020545;28;3617897;-72
2023/02/24 04:56:21;;;;;;;;;63.00;46.00;;;;;11.08;62.82;101074.38;2003154;27;2884602;-72
2023/02/24 04:57:36;;;;;;;;;58.00;44.00;;;;;11.07;63.09;101070.88;2002205;28;2893969;-72
2023/02/24 04:58:46;;;;;;;;;58.00;44.00;;;;;11.07;63.37;101064.75;2024473;28;2879454;-73
2023/02/24 04:59:59;;;;;;;;;61.20;42.20;;;;;11.08;63.04;101066.50;2018312;28;3633527;-72
2023/02/24 05:01:11;;;;;;;;;58.67;44.00;;;;;11.08;62.97;101063.88;1996002;28;3619044;-72
2023/02/24 05:02:23;;;;;;;;;56.80;44.80;;;;;11.10;62.87;101067.31;2016195;28;3596025;-73
2023/02/24 05:03:36;;;;;;;;;62.67;46.00;;;;;11.09;62.87;101065.56;2014732;28;3617028;-73
2023/02/24 05:04:48;;;;;;;;;61.00;44.50;;;;;11.11;62.98;101066.41;1993649;28;2883589;-72
2023/02/24 05:05:59;;;;;;;;;60.00;44.00;;;;;11.10;62.75;101059.41;1993721;28;2884675;-72
2023/02/24 05:07:14;;;;;;;;;57.80;45.20;;;;;11.10;62.67;101069.94;2012787;28;3591873;-72
2023/02/24 05:08:29;;;;;;;;;52.67;40.33;;;;;11.08;62.91;101061.22;2021199;28;3614765;-72
2023/02/24 05:09:39;;;;;;;;;61.50;46.00;;;;;11.07;62.86;101059.50;2001526;27;2882531;-72
2023/02/24 05:10:52;;;;;;;;;61.00;45.20;;;;;11.06;62.63;101055.16;2008299;28;3630442;-72
2023/02/24 05:12:04;;;;;;;;;62.67;45.33;;;;;11.04;62.61;101065.72;2002654;28;3653314;-72
2023/02/24 05:13:18;;;;;;;;;61.20;46.00;;;;;11.02;62.33;101057.88;2038107;28;3618956;-72
2023/02/24 05:14:29;;;;;;;;;63.50;46.00;;;;;10.99;62.71;101057.97;2001509;28;2879391;-73
2023/02/24 05:15:43;;;;;;;;;58.20;44.20;;;;;10.98;62.84;101058.88;2007407;27;3625237;-73
2023/02/24 05:16:58;;;;;;;;;56.50;42.00;;;;;10.96;62.86;101058.06;2003484;27;2887708;-72
2023/02/24 05:18:15;;;;;;;;;60.50;45.00;;;;;10.96;63.06;101060.69;2000790;27;2869404;-73
2023/02/24 05:22:27;;;;;;;;;60.50;45.50;;;;;10.97;62.85;101059.78;2003282;27;2880876;-72
2023/02/24 05:23:43;;;;;;;;;52.50;38.50;;;;;10.96;62.75;101055.44;2002193;28;2888801;-72
2023/02/24 05:24:56;;;;;;;;;56.67;43.67;;;;;10.94;62.72;101049.34;1996542;27;3611680;-72
2023/02/24 05:26:07;;;;;;;;;54.33;44.00;;;;;10.91;62.90;101050.28;2001153;27;3604378;-72
2023/02/24 05:27:20;;;;;;;;;55.40;41.00;;;;;10.91;62.83;101052.09;2009453;28;3637724;-72
2023/02/24 05:28:31;;;;;;;;;55.67;43.00;;;;;10.90;62.83;101052.97;2000926;28;2887728;-72
2023/02/24 05:29:42;;;;;;;;;56.00;44.00;;;;;10.89;62.97;101048.63;2017727;28;2877296;-72
2023/02/24 05:30:54;;;;;;;;;57.00;44.00;;;;;10.89;62.94;101054.72;1998010;28;2864800;-72
2023/02/24 05:32:07;;;;;;;;;60.33;44.67;;;;;10.91;62.93;101049.44;1994422;28;2872084;-72
2023/02/24 05:33:20;;;;;;;;;60.00;43.00;;;;;10.90;63.02;101047.72;2025591;28;2878337;-73
2023/02/24 05:34:32;;;;;;;;;61.00;44.50;;;;;10.91;62.84;101046.81;1999366;28;2885696;-73
2023/02/24 05:35:44;;;;;;;;;61.00;44.50;;;;;10.91;62.84;101049.44;1995347;28;2871046;-72
2023/02/24 05:36:55;;;;;;;;;57.50;44.00;;;;;10.93;62.95;101045.00;1995887;28;2870027;-72
2023/02/24 05:38:07;;;;;;;;;54.00;42.50;;;;;10.94;62.77;101051.97;1999518;28;2868963;-72
2023/02/24 05:39:20;;;;;;;;;56.33;41.67;;;;;10.94;63.02;101044.06;2002917;28;2892923;-72
2023/02/24 05:40:30;;;;;;;;;59.50;45.00;;;;;10.94;62.78;101041.44;2025184;28;2860765;-72
2023/02/24 05:41:42;;;;;;;;;58.60;44.00;;;;;10.93;62.70;101045.00;2014283;28;3629392;-72
2023/02/24 05:42:57;;;;;;;;;64.20;47.00;;;;;10.94;63.02;101038.81;2013543;28;3631436;-73
2023/02/24 05:44:14;;;;;;;;;55.00;42.00;;;;;10.94;62.69;101041.44;2001412;28;2870076;-73